createdAt,value
2018-07-14T00:00:34.107Z,89.37
2018-07-14T00:01:34.315Z,89.42
2018-07-14T00:04:06.473Z,88.75
2018-07-14T00:05:06.645Z,88.17
2018-07-14T00:06:06.838Z,88.37
2018-07-14T00:07:07.028Z,88.51
2018-07-14T00:08:07.217Z,89.23
2018-07-14T00:09:07.407Z,89.71
2018-07-14T00:10:07.658Z,90.47
2018-07-14T00:11:07.814Z,90.57
2018-07-14T00:12:08.025Z,90.19
2018-07-14T00:13:08.236Z,90.95
2018-07-14T00:14:08.448Z,90.76
2018-07-14T00:15:08.646Z,90.47
2018-07-14T00:16:08.873Z,90.76
2018-07-14T00:17:09.086Z,91.10
2018-07-14T00:18:09.282Z,91.34
2018-07-14T00:19:09.483Z,91.14
2018-07-14T00:20:09.671Z,91.53
2018-07-14T00:21:09.862Z,91.10
2018-07-14T00:22:10.060Z,91.29
2018-07-14T00:23:10.273Z,91.34
2018-07-14T00:24:10.468Z,91.29
2018-07-14T00:25:10.663Z,90.91
2018-07-14T00:26:10.861Z,91.58
2018-07-14T00:27:11.052Z,91.49
2018-07-14T00:28:11.242Z,91.58
2018-07-14T00:29:11.434Z,91.96
2018-07-14T00:30:11.641Z,91.77
2018-07-14T00:31:11.826Z,92.06
2018-07-14T00:32:12.034Z,92.25
2018-07-14T00:33:12.245Z,92.25
2018-07-14T00:34:12.472Z,92.35
2018-07-14T00:35:12.665Z,93.02
2018-07-14T00:36:12.869Z,92.82
2018-07-14T00:37:13.072Z,92.92
2018-07-14T00:38:13.256Z,92.63
2018-07-14T00:39:13.452Z,92.54
2018-07-14T00:40:13.639Z,93.02
2018-07-14T00:41:13.850Z,93.21
2018-07-14T00:42:14.045Z,93.02
2018-07-14T00:43:14.242Z,93.11
2018-07-14T00:44:14.433Z,93.30
2018-07-14T00:45:14.635Z,93.30
2018-07-14T00:46:14.846Z,93.69
2018-07-14T00:47:15.047Z,94.64
2018-07-14T00:48:15.236Z,94.21
2018-07-14T00:49:15.454Z,94.35
2018-07-14T00:50:15.658Z,94.21
2018-07-14T00:51:15.850Z,94.17
2018-07-14T00:52:16.055Z,94.17
2018-07-14T00:53:16.263Z,94.07
2018-07-14T00:54:16.446Z,94.84
2018-07-14T00:55:16.660Z,94.98
2018-07-14T00:56:16.885Z,94.79
2018-07-14T00:57:17.086Z,94.64
2018-07-14T00:58:17.285Z,94.69
2018-07-14T00:59:17.496Z,95.27
2018-07-14T01:00:17.684Z,94.40
2018-07-14T01:01:17.886Z,94.40
2018-07-14T01:02:18.100Z,94.89
2018-07-14T01:03:18.289Z,95.07
2018-07-14T01:04:18.499Z,94.89
2018-07-14T01:05:18.691Z,94.98
2018-07-14T01:06:18.889Z,94.60
2018-07-14T01:07:19.094Z,95.56
2018-07-14T01:08:19.299Z,95.46
2018-07-14T01:09:19.499Z,95.65
2018-07-14T01:10:19.696Z,95.27
2018-07-14T01:11:19.905Z,95.65
2018-07-14T01:12:20.112Z,95.46
2018-07-14T01:13:20.318Z,95.46
2018-07-14T01:14:20.502Z,95.46
2018-07-14T01:15:20.688Z,95.46
2018-07-14T01:16:20.878Z,95.36
2018-07-14T01:17:21.076Z,95.65
2018-07-14T01:18:21.274Z,95.36
2018-07-14T01:19:21.485Z,95.36
2018-07-14T01:20:21.693Z,95.36
2018-07-14T01:21:21.894Z,95.75
2018-07-14T01:22:22.081Z,95.84
2018-07-14T01:23:22.279Z,96.03
2018-07-14T01:24:22.488Z,96.22
2018-07-14T01:25:22.693Z,95.94
2018-07-14T01:27:54.901Z,95.94
2018-07-14T01:28:55.074Z,96.42
2018-07-14T01:29:55.260Z,96.61
2018-07-14T01:30:55.469Z,96.27
2018-07-14T01:31:55.654Z,96.70
2018-07-14T01:32:55.835Z,96.47
2018-07-14T01:35:27.994Z,97.04
2018-07-14T01:36:28.166Z,97.33
2018-07-14T01:39:00.331Z,97.42
2018-07-14T01:40:00.497Z,97.42
2018-07-14T01:41:00.702Z,97.61
2018-07-14T01:42:00.907Z,97.23
2018-07-14T01:43:01.107Z,97.80
2018-07-14T01:44:01.287Z,97.42
2018-07-14T01:45:01.483Z,97.80
2018-07-14T01:46:01.680Z,97.80
2018-07-14T01:47:01.871Z,97.61
2018-07-14T01:48:02.060Z,97.61
2018-07-14T01:49:02.245Z,98.19
2018-07-14T01:50:02.454Z,97.80
2018-07-14T01:51:02.665Z,97.90
2018-07-14T01:52:02.864Z,97.80
2018-07-14T01:53:03.070Z,98.28
2018-07-14T01:54:03.271Z,98.19
2018-07-14T01:55:03.472Z,98.19
2018-07-14T01:56:03.666Z,98.19
2018-07-14T01:57:03.865Z,98.28
2018-07-14T01:58:04.058Z,98.09
2018-07-14T01:59:04.260Z,98.09
2018-07-14T02:01:36.418Z,98.00
2018-07-14T02:02:36.597Z,98.28
2018-07-14T02:03:36.792Z,98.19
2018-07-14T02:04:36.973Z,98.09
2018-07-14T02:07:09.360Z,97.80
2018-07-14T02:08:09.534Z,97.71
2018-07-14T02:09:09.738Z,97.80
2018-07-14T02:10:09.929Z,97.80
2018-07-14T02:11:10.152Z,98.66
2018-07-14T02:12:10.364Z,98.19
2018-07-14T02:13:10.568Z,98.28
2018-07-14T02:14:10.763Z,98.38
2018-07-14T02:15:10.958Z,99.15
2018-07-14T02:16:11.144Z,98.61
2018-07-14T02:17:11.344Z,98.71
2018-07-14T02:18:11.548Z,98.71
2018-07-14T02:19:11.756Z,98.71
2018-07-14T02:20:11.959Z,98.61
2018-07-14T02:21:12.169Z,98.71
2018-07-14T02:22:12.450Z,99.29
2018-07-14T02:23:12.516Z,98.61
2018-07-14T02:24:12.703Z,99.00
2018-07-14T02:25:12.893Z,99.00
2018-07-14T02:26:13.149Z,99.86
2018-07-14T02:27:13.285Z,99.57
2018-07-14T02:28:13.473Z,99.76
2018-07-14T02:29:13.665Z,99.38
2018-07-14T02:30:13.844Z,99.38
2018-07-14T02:31:14.029Z,99.86
2018-07-14T02:32:14.315Z,99.76
2018-07-14T02:33:14.401Z,99.67
2018-07-14T02:34:14.609Z,99.67
2018-07-14T02:35:14.793Z,99.86
2018-07-14T02:36:15.000Z,99.99
2018-07-14T02:37:15.184Z,99.99
2018-07-14T02:38:15.373Z,99.99
2018-07-14T02:39:15.568Z,99.99
2018-07-14T02:40:15.763Z,99.99
2018-07-14T02:41:15.953Z,99.96
2018-07-14T02:42:16.167Z,99.67
2018-07-14T02:43:16.345Z,99.99
2018-07-14T02:44:16.534Z,99.99
2018-07-14T02:46:48.925Z,99.99
2018-07-14T02:47:48.850Z,99.99
2018-07-14T02:48:49.054Z,99.99
2018-07-14T02:49:49.261Z,99.99
2018-07-14T02:50:49.481Z,99.99
2018-07-14T02:51:49.692Z,99.99
2018-07-14T02:52:49.876Z,99.99
2018-07-14T02:53:50.073Z,99.99
2018-07-14T02:54:50.290Z,99.99
2018-07-14T02:55:50.483Z,99.99
2018-07-14T02:56:50.698Z,99.99
2018-07-14T02:57:50.893Z,99.99
2018-07-14T02:58:51.103Z,99.99
2018-07-14T02:59:51.395Z,99.99
2018-07-14T03:00:51.511Z,99.99
2018-07-14T03:01:51.723Z,99.99
2018-07-14T03:02:51.904Z,99.99
2018-07-14T03:03:52.093Z,99.99
2018-07-14T03:04:52.297Z,99.99
2018-07-14T03:05:52.507Z,99.99
2018-07-14T03:06:52.698Z,99.99
2018-07-14T03:07:52.893Z,99.99
2018-07-14T03:08:53.085Z,99.99
2018-07-14T03:09:53.293Z,99.99
2018-07-14T03:10:53.478Z,99.99
2018-07-14T03:11:53.683Z,99.99
2018-07-14T03:12:54.099Z,99.99
2018-07-14T03:13:54.060Z,99.99
2018-07-14T03:14:54.244Z,99.99
2018-07-14T03:15:54.439Z,99.99
2018-07-14T03:16:54.644Z,99.99
2018-07-14T03:17:54.832Z,99.99
2018-07-14T03:20:27.093Z,99.99
2018-07-14T03:21:27.265Z,99.99
2018-07-14T03:22:27.447Z,99.99
2018-07-14T03:23:27.654Z,99.99
2018-07-14T03:24:27.863Z,99.99
2018-07-14T03:25:28.075Z,99.99
2018-07-14T03:26:28.255Z,99.99
2018-07-14T03:27:28.445Z,99.99
2018-07-14T03:28:28.654Z,99.99
2018-07-14T03:29:28.864Z,99.99
2018-07-14T03:30:29.073Z,99.99
2018-07-14T03:31:29.259Z,99.99
2018-07-14T03:32:29.460Z,99.99
2018-07-14T03:33:29.667Z,99.99
2018-07-14T03:34:29.880Z,99.99
2018-07-14T03:35:30.091Z,99.99
2018-07-14T03:36:30.283Z,99.99
2018-07-14T03:37:30.497Z,99.99
2018-07-14T03:38:30.704Z,99.99
2018-07-14T03:39:30.914Z,99.99
2018-07-14T03:40:31.118Z,99.99
2018-07-14T03:41:31.317Z,99.99
2018-07-14T03:42:31.524Z,99.99
2018-07-14T03:43:31.734Z,99.99
2018-07-14T03:44:31.923Z,99.99
2018-07-14T03:45:32.146Z,99.99
2018-07-14T03:46:32.326Z,99.99
2018-07-14T03:47:32.529Z,99.99
2018-07-14T03:48:32.740Z,99.99
2018-07-14T03:49:32.951Z,99.99
2018-07-14T03:50:33.138Z,99.99
2018-07-14T03:51:33.323Z,99.99
2018-07-14T03:52:33.512Z,99.99
2018-07-14T03:53:33.721Z,99.99
2018-07-14T03:54:33.929Z,99.99
2018-07-14T03:55:34.118Z,99.99
2018-07-14T03:56:34.317Z,99.99
2018-07-14T03:57:34.521Z,99.99
2018-07-14T03:58:34.706Z,99.99
2018-07-14T03:59:34.914Z,99.99
2018-07-14T04:00:35.103Z,99.99
2018-07-14T04:03:07.438Z,99.99
2018-07-14T04:04:07.611Z,99.99
2018-07-14T04:05:07.817Z,99.99
2018-07-14T04:06:07.994Z,99.99
2018-07-14T04:07:08.212Z,99.99
2018-07-14T04:08:08.400Z,99.99
2018-07-14T04:09:08.581Z,99.99
2018-07-14T04:10:08.787Z,99.99
2018-07-14T04:12:40.909Z,99.99
2018-07-14T04:13:41.082Z,99.99
2018-07-14T04:14:41.339Z,99.99
2018-07-14T04:15:41.498Z,99.99
2018-07-14T04:16:41.696Z,99.99
2018-07-14T04:17:41.873Z,99.99
2018-07-14T04:18:42.070Z,99.99
2018-07-14T04:19:42.290Z,99.99
2018-07-14T04:20:42.504Z,99.99
2018-07-14T04:21:42.690Z,99.99
2018-07-14T04:22:42.891Z,99.99
2018-07-14T04:23:43.074Z,99.99
2018-07-14T04:24:43.258Z,99.67
2018-07-14T04:25:43.443Z,97.23
2018-07-14T04:26:43.651Z,94.31
2018-07-14T04:27:43.849Z,91.72
2018-07-14T04:28:44.060Z,89.41
2018-07-14T04:29:44.245Z,87.54
2018-07-14T04:30:44.454Z,86.14
2018-07-14T04:31:44.645Z,84.17
2018-07-14T04:32:44.852Z,82.67
2018-07-14T04:33:45.040Z,80.69
2018-07-14T04:36:16.854Z,76.88
2018-07-14T04:37:17.031Z,76.69
2018-07-14T04:38:17.237Z,76.34
2018-07-14T04:39:17.445Z,75.96
2018-07-14T04:40:17.656Z,75.32
2018-07-14T04:41:17.847Z,73.82
2018-07-14T04:42:18.040Z,73.58
2018-07-14T04:43:18.308Z,73.30
2018-07-14T04:44:18.383Z,73.10
2018-07-14T04:45:18.594Z,73.97
2018-07-14T04:46:18.784Z,73.58
2018-07-14T04:48:50.997Z,73.68
2018-07-14T04:49:51.173Z,73.30
2018-07-14T04:50:51.371Z,72.81
2018-07-14T04:51:51.555Z,72.56
2018-07-14T04:52:51.772Z,71.12
2018-07-14T04:53:51.988Z,70.96
2018-07-14T04:54:52.181Z,71.50
2018-07-14T04:55:52.371Z,70.96
2018-07-14T04:56:52.564Z,70.67
2018-07-14T04:57:52.781Z,71.56
2018-07-14T04:58:52.989Z,72.43
2018-07-14T04:59:53.175Z,70.57
2018-07-14T05:00:53.389Z,71.56
2018-07-14T05:01:53.593Z,74.86
2018-07-14T05:02:53.813Z,77.51
2018-07-14T05:03:54.033Z,78.09
2018-07-14T05:04:54.244Z,76.98
2018-07-14T05:05:54.456Z,77.17
2018-07-14T05:06:54.645Z,76.50
2018-07-14T05:07:54.849Z,77.42
2018-07-14T05:08:55.053Z,76.15
2018-07-14T05:09:55.257Z,75.34
2018-07-14T05:10:55.454Z,75.92
2018-07-14T05:11:55.664Z,76.40
2018-07-14T05:12:55.873Z,76.21
2018-07-14T05:13:56.077Z,76.34
2018-07-14T05:16:28.241Z,72.31
2018-07-14T05:17:28.488Z,71.15
2018-07-14T05:18:28.572Z,71.89
2018-07-14T05:19:28.837Z,71.22
2018-07-14T05:20:28.993Z,70.92
2018-07-14T05:21:29.237Z,70.48
2018-07-14T05:22:29.398Z,69.49
2018-07-14T05:23:29.606Z,67.97
2018-07-14T05:24:29.789Z,67.01
2018-07-14T05:25:29.980Z,66.97
2018-07-14T05:26:30.176Z,68.13
2018-07-14T05:27:30.373Z,67.55
2018-07-14T05:28:30.601Z,65.98
2018-07-14T05:29:30.797Z,64.79
2018-07-14T05:30:30.992Z,63.92
2018-07-14T05:31:31.189Z,65.05
2018-07-14T05:34:03.557Z,64.79
2018-07-14T05:35:03.732Z,62.69
2018-07-14T05:36:03.945Z,61.79
2018-07-14T05:37:04.154Z,60.52
2018-07-14T05:38:04.350Z,60.55
2018-07-14T05:39:04.560Z,60.62
2018-07-14T05:40:04.761Z,60.72
2018-07-14T05:41:04.959Z,60.98
2018-07-14T05:42:05.181Z,61.11
2018-07-14T05:43:05.386Z,60.36
2018-07-14T05:44:05.588Z,60.75
2018-07-14T05:45:05.796Z,60.82
2018-07-14T05:46:05.989Z,60.65
2018-07-14T05:47:06.188Z,59.84
2018-07-14T05:48:06.392Z,59.61
2018-07-14T05:49:06.581Z,59.97
2018-07-14T05:50:06.916Z,60.00
2018-07-14T05:51:06.966Z,58.48
2018-07-14T05:52:07.287Z,58.58
2018-07-14T05:53:07.392Z,58.48
2018-07-14T05:54:07.591Z,58.06
2018-07-14T05:55:07.787Z,58.29
2018-07-14T05:56:07.982Z,58.26
2018-07-14T05:57:08.188Z,57.15
2018-07-14T05:58:08.376Z,57.34
2018-07-14T05:59:08.580Z,56.86
2018-07-14T06:00:08.783Z,57.42
2018-07-14T06:01:08.979Z,57.68
2018-07-14T06:02:09.193Z,58.55
2018-07-14T06:03:09.409Z,58.16
2018-07-14T06:05:41.567Z,57.06
2018-07-14T06:06:41.750Z,57.80
2018-07-14T06:07:42.015Z,57.47
2018-07-14T06:08:42.172Z,56.04
2018-07-14T06:09:42.372Z,55.19
2018-07-14T06:10:42.595Z,55.03
2018-07-14T06:11:42.811Z,53.67
2018-07-14T06:12:43.028Z,54.10
2018-07-14T06:13:43.227Z,55.46
2018-07-14T06:14:43.438Z,56.21
2018-07-14T06:15:43.654Z,55.39
2018-07-14T06:16:43.867Z,53.69
2018-07-14T06:17:44.069Z,53.20
2018-07-14T06:18:44.273Z,54.90
2018-07-14T06:19:44.487Z,55.92
2018-07-14T06:20:44.679Z,56.37
2018-07-14T06:21:44.898Z,58.29
2018-07-14T06:22:45.092Z,57.90
2018-07-14T06:23:45.284Z,58.03
2018-07-14T06:24:45.508Z,58.70
2018-07-14T06:25:45.700Z,57.90
2018-07-14T06:26:45.911Z,58.51
2018-07-14T06:27:46.129Z,57.37
2018-07-14T06:28:46.324Z,56.04
2018-07-14T06:29:46.545Z,54.61
2018-07-14T06:32:18.695Z,55.98
2018-07-14T06:33:18.874Z,55.49
2018-07-14T06:34:19.075Z,55.98
2018-07-14T06:35:19.280Z,55.94
2018-07-14T06:36:19.501Z,55.94
2018-07-14T06:37:19.716Z,55.29
2018-07-14T06:38:19.976Z,54.42
2018-07-14T06:39:20.157Z,54.54
2018-07-14T06:40:20.350Z,54.80
2018-07-14T06:41:20.564Z,55.58
2018-07-14T06:42:20.765Z,55.78
2018-07-14T06:43:20.974Z,55.29
2018-07-14T06:44:21.164Z,55.51
2018-07-14T06:45:21.378Z,54.08
2018-07-14T06:46:21.578Z,53.52
2018-07-14T06:47:21.775Z,53.59
2018-07-14T06:48:21.991Z,53.72
2018-07-14T06:49:22.194Z,53.06
2018-07-14T06:50:22.450Z,53.30
2018-07-14T06:51:22.682Z,55.98
2018-07-14T06:52:22.906Z,56.04
2018-07-14T06:53:23.098Z,56.10
2018-07-14T06:54:23.463Z,54.93
2018-07-14T06:55:23.509Z,54.80
2018-07-14T06:56:23.732Z,55.03
2018-07-14T06:57:23.925Z,55.27
2018-07-14T06:58:24.159Z,57.80
2018-07-14T06:59:24.390Z,58.58
2018-07-14T07:00:24.580Z,58.84
2018-07-14T07:01:24.780Z,57.76
2018-07-14T07:02:24.982Z,57.97
2018-07-14T07:03:25.275Z,58.61
2018-07-14T07:04:25.424Z,57.08
2018-07-14T07:05:25.624Z,56.89
2018-07-14T07:06:25.831Z,55.51
2018-07-14T07:07:26.048Z,53.74
2018-07-14T07:08:26.251Z,54.01
2018-07-14T07:09:26.531Z,53.09
2018-07-14T07:10:26.615Z,53.13
2018-07-14T07:11:26.816Z,55.58
2018-07-14T07:12:27.032Z,54.15
2018-07-14T07:13:27.239Z,54.05
2018-07-14T07:14:27.456Z,52.19
2018-07-14T07:15:27.664Z,51.02
2018-07-14T07:16:27.860Z,51.19
2018-07-14T07:17:28.093Z,50.80
2018-07-14T07:20:00.266Z,49.56
2018-07-14T07:21:00.448Z,49.07
2018-07-14T07:22:00.675Z,48.83
2018-07-14T07:23:00.874Z,50.02
2018-07-14T07:24:01.076Z,52.01
2018-07-14T07:25:01.295Z,49.97
2018-07-14T07:26:01.505Z,49.44
2018-07-14T07:27:01.726Z,49.63
2018-07-14T07:28:01.951Z,48.39
2018-07-14T07:29:02.164Z,48.56
2018-07-14T07:30:02.373Z,46.58
2018-07-14T07:31:02.703Z,44.43
2018-07-14T07:33:34.894Z,46.47
2018-07-14T07:34:35.006Z,46.12
2018-07-14T07:35:35.172Z,43.41
2018-07-14T07:36:35.388Z,44.78
2018-07-14T07:37:35.585Z,43.78
2018-07-14T07:38:35.828Z,42.60
2018-07-14T07:39:36.046Z,42.09
2018-07-14T07:40:36.257Z,42.05
2018-07-14T07:41:36.475Z,42.21
2018-07-14T07:44:08.640Z,41.86
2018-07-14T07:45:08.824Z,40.29
2018-07-14T07:46:09.056Z,42.85
2018-07-14T07:47:09.283Z,43.01
2018-07-14T07:48:09.520Z,39.82
2018-07-14T07:49:09.747Z,40.27
2018-07-14T07:50:09.946Z,40.56
2018-07-14T07:51:10.167Z,39.49
2018-07-14T07:52:10.381Z,39.72
2018-07-14T07:53:10.583Z,39.94
2018-07-14T07:54:10.784Z,38.94
2018-07-14T07:56:42.955Z,39.61
2018-07-14T07:57:43.144Z,39.80
2018-07-14T07:58:43.370Z,40.88
2018-07-14T07:59:43.594Z,42.60
2018-07-14T08:00:43.793Z,41.36
2018-07-14T08:01:44.030Z,40.31
2018-07-14T08:02:44.244Z,38.60
2018-07-14T08:03:44.457Z,36.90
2018-07-14T08:04:44.677Z,35.06
2018-07-14T08:05:44.949Z,35.05
2018-07-14T08:06:45.036Z,40.78
2018-07-14T08:07:45.266Z,41.85
2018-07-14T08:08:45.521Z,42.68
2018-07-14T08:09:45.705Z,40.94
2018-07-14T08:10:45.914Z,41.74
2018-07-14T08:11:46.115Z,41.70
2018-07-14T08:12:46.345Z,41.62
2018-07-14T08:13:46.556Z,39.64
2018-07-14T08:14:46.775Z,39.82
2018-07-14T08:15:46.973Z,38.82
2018-07-14T08:16:47.189Z,40.29
2018-07-14T08:17:47.388Z,40.31
2018-07-14T08:18:47.611Z,37.87
2018-07-14T08:19:47.818Z,39.80
2018-07-14T08:20:48.022Z,40.19
2018-07-14T08:21:48.236Z,38.96
2018-07-14T08:22:48.531Z,39.82
2018-07-14T08:23:48.654Z,40.01
2018-07-14T08:24:48.866Z,39.74
2018-07-14T08:25:49.070Z,39.76
2018-07-14T08:26:49.286Z,38.00
2018-07-14T08:27:49.512Z,39.06
2018-07-14T08:28:49.738Z,38.57
2018-07-14T08:29:49.957Z,36.76
2018-07-14T08:30:50.161Z,35.96
2018-07-14T08:31:50.378Z,37.35
2018-07-14T08:32:50.594Z,36.76
2018-07-14T08:33:50.794Z,36.08
2018-07-14T08:34:51.009Z,37.23
2018-07-14T08:35:51.228Z,37.04
2018-07-14T08:36:51.433Z,36.72
2018-07-14T08:37:51.657Z,35.08
2018-07-14T08:38:51.868Z,35.63
2018-07-14T08:39:52.074Z,35.77
2018-07-14T08:40:52.301Z,37.14
2018-07-14T08:41:52.500Z,35.61
2018-07-14T08:42:52.716Z,34.98
2018-07-14T08:43:53.034Z,34.26
2018-07-14T08:44:53.137Z,34.83
2018-07-14T08:45:53.335Z,35.03
2018-07-14T08:46:53.551Z,33.48
2018-07-14T08:47:53.759Z,34.34
2018-07-14T08:48:53.997Z,34.94
2018-07-14T08:49:54.197Z,35.42
2018-07-14T08:50:54.409Z,35.13
2018-07-14T08:51:54.630Z,35.56
2018-07-14T08:52:54.834Z,35.75
2018-07-14T08:53:55.052Z,35.21
2018-07-14T08:54:55.263Z,35.14
2018-07-14T08:55:55.478Z,37.41
2018-07-14T08:56:55.676Z,37.27
2018-07-14T08:57:55.889Z,37.67
2018-07-14T08:58:56.114Z,35.87
2018-07-14T08:59:56.344Z,33.77
2018-07-14T09:00:56.569Z,33.67
2018-07-14T09:01:56.788Z,34.05
2018-07-14T09:02:57.074Z,33.77
2018-07-14T09:03:57.155Z,34.65
2018-07-14T09:04:57.374Z,34.16
2018-07-14T09:05:57.589Z,34.50
2018-07-14T09:06:57.815Z,34.74
2018-07-14T09:07:58.047Z,35.32
2018-07-14T09:08:58.260Z,34.74
2018-07-14T09:09:58.463Z,32.61
2018-07-14T09:10:58.685Z,33.09
2018-07-14T09:11:58.906Z,35.55
2018-07-14T09:12:59.111Z,35.89
2018-07-14T09:13:59.317Z,34.24
2018-07-14T09:14:59.531Z,35.30
2018-07-14T09:17:31.744Z,34.55
2018-07-14T09:18:31.937Z,33.31
2018-07-14T09:19:32.152Z,34.47
2018-07-14T09:20:32.376Z,36.54
2018-07-14T09:21:32.601Z,36.41
2018-07-14T09:22:32.816Z,34.74
2018-07-14T09:23:33.041Z,34.30
2018-07-14T09:24:33.261Z,35.24
2018-07-14T09:25:33.466Z,35.24
2018-07-14T09:26:33.674Z,37.71
2018-07-14T09:27:33.880Z,37.22
2018-07-14T09:28:34.081Z,37.06
2018-07-14T09:29:34.276Z,35.81
2018-07-14T09:30:34.499Z,35.22
2018-07-14T09:31:34.722Z,35.61
2018-07-14T09:32:34.946Z,38.77
2018-07-14T09:33:35.132Z,38.24
2018-07-14T09:34:35.341Z,37.96
2018-07-14T09:35:35.586Z,35.85
2018-07-14T09:36:35.803Z,35.19
2018-07-14T09:37:36.023Z,34.91
2018-07-14T09:38:36.229Z,36.20
2018-07-14T09:39:36.481Z,36.08
2018-07-14T09:40:36.708Z,34.74
2018-07-14T09:41:36.912Z,35.11
2018-07-14T09:42:37.120Z,34.21
2018-07-14T09:43:37.331Z,35.46
2018-07-14T09:44:37.593Z,35.21
2018-07-14T09:45:37.776Z,35.34
2018-07-14T09:46:37.965Z,35.21
2018-07-14T09:47:38.231Z,35.81
2018-07-14T09:48:38.410Z,35.52
2018-07-14T09:49:38.638Z,34.75
2018-07-14T09:50:38.835Z,34.86
2018-07-14T09:51:39.066Z,35.11
2018-07-14T09:52:39.282Z,31.84
2018-07-14T09:53:39.495Z,33.23
2018-07-14T09:54:39.724Z,34.96
2018-07-14T09:55:39.934Z,35.36
2018-07-14T09:56:40.148Z,36.85
2018-07-14T09:57:40.372Z,35.99
2018-07-14T09:58:40.593Z,34.08
2018-07-14T09:59:40.817Z,34.06
2018-07-14T10:00:41.032Z,33.51
2018-07-14T10:01:41.232Z,32.07
2018-07-14T10:02:41.450Z,32.34
2018-07-14T10:03:41.670Z,32.89
2018-07-14T10:04:41.873Z,32.95
2018-07-14T10:05:42.090Z,34.75
2018-07-14T10:06:42.331Z,32.63
2018-07-14T10:07:42.517Z,31.19
2018-07-14T10:08:42.726Z,30.93
2018-07-14T10:09:42.952Z,30.43
2018-07-14T10:10:43.146Z,31.12
2018-07-14T10:11:43.372Z,32.82
2018-07-14T10:12:43.627Z,31.63
2018-07-14T10:13:43.841Z,31.64
2018-07-14T10:14:44.041Z,29.30
2018-07-14T10:15:44.266Z,29.51
2018-07-14T10:16:44.471Z,31.65
2018-07-14T10:17:44.751Z,33.87
2018-07-14T10:18:44.914Z,32.43
2018-07-14T10:19:45.140Z,31.68
2018-07-14T10:20:45.359Z,33.22
2018-07-14T10:21:45.582Z,34.45
2018-07-14T10:22:45.797Z,34.83
2018-07-14T10:23:46.021Z,33.53
2018-07-14T10:24:46.225Z,31.41
2018-07-14T10:25:46.647Z,30.84
2018-07-14T10:26:46.686Z,31.58
2018-07-14T10:27:46.911Z,30.55
2018-07-14T10:28:47.114Z,29.57
2018-07-14T10:29:47.313Z,30.32
2018-07-14T10:30:47.539Z,33.02
2018-07-14T10:31:47.766Z,33.33
2018-07-14T10:32:47.981Z,32.28
2018-07-14T10:33:48.319Z,30.91
2018-07-14T10:34:48.407Z,31.68
2018-07-14T10:35:48.624Z,31.96
2018-07-14T10:36:48.823Z,32.23
2018-07-14T10:37:49.026Z,34.34
2018-07-14T10:38:49.297Z,34.83
2018-07-14T10:39:49.442Z,35.09
2018-07-14T10:40:49.645Z,37.12
2018-07-14T10:41:49.863Z,36.43
2018-07-14T10:42:50.099Z,36.80
2018-07-14T10:43:50.321Z,38.55
2018-07-14T10:44:50.878Z,37.87
2018-07-14T10:45:50.716Z,37.52
2018-07-14T10:46:51.000Z,37.01
2018-07-14T10:47:51.127Z,36.82
2018-07-14T10:48:51.342Z,38.43
2018-07-14T10:49:51.536Z,40.16
2018-07-14T10:50:51.740Z,40.35
2018-07-14T10:51:51.943Z,40.91
2018-07-14T10:52:52.147Z,41.42
2018-07-14T10:53:52.374Z,42.08
2018-07-14T10:54:52.593Z,41.52
2018-07-14T10:55:52.812Z,40.66
2018-07-14T10:56:53.046Z,41.96
2018-07-14T10:57:53.265Z,43.24
2018-07-14T10:58:53.474Z,45.57
2018-07-14T10:59:53.692Z,46.06
2018-07-14T11:00:53.881Z,43.24
2018-07-14T11:01:54.083Z,44.19
2018-07-14T11:02:54.297Z,44.19
2018-07-14T11:03:54.532Z,43.95
2018-07-14T11:04:54.737Z,42.70
2018-07-14T11:05:54.986Z,44.45
2018-07-14T11:06:55.195Z,44.55
2018-07-14T11:07:55.393Z,43.67
2018-07-14T11:08:55.593Z,42.66
2018-07-14T11:09:55.795Z,42.53
2018-07-14T11:10:56.004Z,43.09
2018-07-14T11:11:56.204Z,43.52
2018-07-14T11:12:56.423Z,41.99
2018-07-14T11:13:56.646Z,41.81
2018-07-14T11:14:56.869Z,39.70
2018-07-14T11:15:57.088Z,39.80
2018-07-14T11:16:57.308Z,38.82
2018-07-14T11:17:57.547Z,40.70
2018-07-14T11:18:57.742Z,39.72
2018-07-14T11:19:57.957Z,39.12
2018-07-14T11:20:58.179Z,39.67
2018-07-14T11:21:58.395Z,40.76
2018-07-14T11:22:58.640Z,42.14
2018-07-14T11:23:58.835Z,41.28
2018-07-14T11:24:59.023Z,41.48
2018-07-14T11:25:59.231Z,38.75
2018-07-14T11:26:59.436Z,38.34
2018-07-14T11:27:59.645Z,38.55
2018-07-14T11:28:59.843Z,38.87
2018-07-14T11:30:00.067Z,38.01
2018-07-14T11:31:00.268Z,37.71
2018-07-14T11:32:00.473Z,38.10
2018-07-14T11:33:00.670Z,37.89
2018-07-14T11:34:00.918Z,37.62
2018-07-14T11:35:01.154Z,38.10
2018-07-14T11:36:01.369Z,37.60
2018-07-14T11:37:01.566Z,38.77
2018-07-14T11:38:01.749Z,38.65
2018-07-14T11:39:01.960Z,38.43
2018-07-14T11:40:02.179Z,38.75
2018-07-14T11:41:02.377Z,38.59
2018-07-14T11:42:02.586Z,40.99
2018-07-14T11:43:02.793Z,41.50
2018-07-14T11:44:03.003Z,39.67
2018-07-14T11:45:03.209Z,39.70
2018-07-14T11:46:03.408Z,38.84
2018-07-14T11:47:03.599Z,38.06
2018-07-14T11:48:03.806Z,37.89
2018-07-14T11:49:04.006Z,38.28
2018-07-14T11:50:04.204Z,38.22
2018-07-14T11:51:04.419Z,37.04
2018-07-14T11:52:04.642Z,36.94
2018-07-14T11:53:04.948Z,36.91
2018-07-14T11:54:05.038Z,37.29
2018-07-14T11:55:05.246Z,37.85
2018-07-14T11:56:05.454Z,39.49
2018-07-14T11:57:05.665Z,40.17
2018-07-14T11:59:38.053Z,37.87
2018-07-14T12:00:38.236Z,38.94
2018-07-14T12:01:38.447Z,38.65
2018-07-14T12:02:38.639Z,39.33
2018-07-14T12:03:38.836Z,39.82
2018-07-14T12:04:39.055Z,40.68
2018-07-14T12:05:39.273Z,40.88
2018-07-14T12:06:39.482Z,41.11
2018-07-14T12:07:39.698Z,42.45
2018-07-14T12:08:39.894Z,42.99
2018-07-14T12:09:40.111Z,42.90
2018-07-14T12:10:40.326Z,43.33
2018-07-14T12:11:40.536Z,42.65
2018-07-14T12:12:40.763Z,41.69
2018-07-14T12:13:40.988Z,41.13
2018-07-14T12:14:41.185Z,41.50
2018-07-14T12:15:41.398Z,41.50
2018-07-14T12:16:41.627Z,41.38
2018-07-14T12:17:41.842Z,41.77
2018-07-14T12:18:42.049Z,42.08
2018-07-14T12:19:42.253Z,42.45
2018-07-14T12:20:42.458Z,43.33
2018-07-14T12:21:42.652Z,42.94
2018-07-14T12:22:42.864Z,42.45
2018-07-14T12:23:43.077Z,44.49
2018-07-14T12:24:43.294Z,43.62
2018-07-14T12:27:15.455Z,47.52
2018-07-14T12:28:15.631Z,45.47
2018-07-14T12:29:15.870Z,45.76
2018-07-14T12:30:16.105Z,48.15
2018-07-14T12:31:16.263Z,48.22
2018-07-14T12:32:16.489Z,48.25
2018-07-14T12:33:16.703Z,47.20
2018-07-14T12:34:16.911Z,45.86
2018-07-14T12:35:17.118Z,42.45
2018-07-14T12:36:17.327Z,41.79
2018-07-14T12:37:17.541Z,42.08
2018-07-14T12:38:17.773Z,41.42
2018-07-14T12:39:17.973Z,40.56
2018-07-14T12:40:18.203Z,42.79
2018-07-14T12:41:18.405Z,43.18
2018-07-14T12:42:18.613Z,42.49
2018-07-14T12:43:18.838Z,41.50
2018-07-14T12:44:19.070Z,43.13
2018-07-14T12:45:19.300Z,43.50
2018-07-14T12:46:19.558Z,46.61
2018-07-14T12:47:19.779Z,47.59
2018-07-14T12:48:20.001Z,44.45
2018-07-14T12:49:20.214Z,42.80
2018-07-14T12:50:20.433Z,42.72
2018-07-14T12:51:20.637Z,42.04
2018-07-14T12:52:20.859Z,42.33
2018-07-14T12:53:21.097Z,42.53
2018-07-14T12:54:21.293Z,42.43
2018-07-14T12:55:21.502Z,42.72
2018-07-14T12:56:21.719Z,44.76
2018-07-14T12:57:21.921Z,43.11
2018-07-14T12:58:22.144Z,42.35
2018-07-14T12:59:22.354Z,41.48
2018-07-14T13:00:22.565Z,42.18
2018-07-14T13:01:22.788Z,42.28
2018-07-14T13:02:23.001Z,42.65
2018-07-14T13:03:23.217Z,42.65
2018-07-14T13:04:23.409Z,43.13
2018-07-14T13:05:23.601Z,44.30
2018-07-14T13:06:23.870Z,44.89
2018-07-14T13:07:24.035Z,45.06
2018-07-14T13:08:24.253Z,46.32
2018-07-14T13:09:24.467Z,45.54
2018-07-14T13:10:24.676Z,43.96
2018-07-14T13:11:24.902Z,44.86
2018-07-14T13:12:25.116Z,45.94
2018-07-14T13:13:25.316Z,45.84
2018-07-14T13:14:25.538Z,44.57
2018-07-14T13:15:25.717Z,42.53
2018-07-14T13:16:25.924Z,43.70
2018-07-14T13:17:26.168Z,44.96
2018-07-14T13:18:26.378Z,43.96
2018-07-14T13:19:26.595Z,44.57
2018-07-14T13:20:26.832Z,43.09
2018-07-14T13:21:27.064Z,43.34
2018-07-14T13:22:27.244Z,47.15
2018-07-14T13:24:59.658Z,45.89
2018-07-14T13:25:59.855Z,46.11
2018-07-14T13:27:00.061Z,46.32
2018-07-14T13:28:00.275Z,45.84
2018-07-14T13:29:00.518Z,46.05
2018-07-14T13:30:00.768Z,45.88
2018-07-14T13:31:00.943Z,43.43
2018-07-14T13:32:01.142Z,42.96